Time;durP1;ratioP1;P1;durP2;ratioP2;P2;SDS_P1;SDS_P2;PMS_P1;PMS_P2;Temp;Humidity;BMP_temperature;BMP_pressure;BME280_temperature;BME280_humidity;BME280_pressure;Samples;Min_cycle;Max_cycle;Signal;HPM_P1;HPM_P2
2023/04/30 00:00:33;;;;;;;2.80;1.73;;;;;;;;;;5044148;28;20279;-66
2023/04/30 00:02:58;;;;;;;4.07;2.22;;;;;;;;;;5045848;28;20350;-64
2023/04/30 00:05:24;;;;;;;2.83;1.70;;;;;;;;;;5039331;28;20478;-63
2023/04/30 00:07:49;;;;;;;2.60;1.83;;;;;;;;;;5045798;28;20299;-66
2023/04/30 00:10:14;;;;;;;3.60;2.10;;;;;;;;;;5034375;28;20155;-63
2023/04/30 00:12:39;;;;;;;2.78;2.10;;;;;;;;;;5040582;28;20291;-65
2023/04/30 00:15:05;;;;;;;2.92;2.15;;;;;;;;;;5043559;28;20045;-65
2023/04/30 00:17:30;;;;;;;2.63;1.80;;;;;;;;;;5047120;28;20477;-63
2023/04/30 00:19:55;;;;;;;2.80;1.80;;;;;;;;;;5047397;28;20497;-65
2023/04/30 00:22:21;;;;;;;3.00;2.20;;;;;;;;;;5040932;28;20279;-66
2023/04/30 00:24:46;;;;;;;3.13;2.13;;;;;;;;;;5024568;28;20279;-63
2023/04/30 00:27:11;;;;;;;3.47;2.10;;;;;;;;;;5024004;28;20283;-64
2023/04/30 00:29:36;;;;;;;3.20;1.93;;;;;;;;;;5036874;28;20740;-64
2023/04/30 00:32:02;;;;;;;3.20;2.03;;;;;;;;;;5046298;28;20742;-66
2023/04/30 00:34:27;;;;;;;3.58;2.15;;;;;;;;;;5045947;28;20036;-65
2023/04/30 00:36:52;;;;;;;3.30;1.90;;;;;;;;;;5044368;28;20144;-66
2023/04/30 00:39:18;;;;;;;3.78;2.08;;;;;;;;;;5042779;28;20044;-67
2023/04/30 00:41:43;;;;;;;3.10;1.97;;;;;;;;;;5040736;28;20033;-63
2023/04/30 00:44:08;;;;;;;3.03;1.98;;;;;;;;;;5022144;28;20051;-65
2023/04/30 00:46:34;;;;;;;2.77;2.30;;;;;;;;;;5042458;28;20488;-67
2023/04/30 00:49:03;;;;;;;3.10;2.30;;;;;;;;;;5025397;28;20497;-65
2023/04/30 00:51:28;;;;;;;3.80;2.20;;;;;;;;;;5030970;28;20087;-62
2023/04/30 00:53:54;;;;;;;3.50;1.87;;;;;;;;;;5024448;28;20037;-66
2023/04/30 00:56:19;;;;;;;3.97;2.23;;;;;;;;;;5047515;28;20272;-62
2023/04/30 00:58:45;;;;;;;3.67;2.30;;;;;;;;;;5043023;28;20854;-66
2023/04/30 01:01:10;;;;;;;3.80;2.30;;;;;;;;;;5041210;28;20096;-66
2023/04/30 01:03:35;;;;;;;2.90;2.10;;;;;;;;;;5025591;28;20276;-65
2023/04/30 01:06:02;;;;;;;3.57;2.27;;;;;;;;;;5042753;28;20099;-62
2023/04/30 01:08:27;;;;;;;3.50;2.33;;;;;;;;;;5042342;28;20067;-65
2023/04/30 01:10:54;;;;;;;3.78;2.35;;;;;;;;;;5037927;28;20036;-65
2023/04/30 01:13:25;;;;;;;4.00;2.10;;;;;;;;;;5039973;28;21166;-64
2023/04/30 01:15:51;;;;;;;2.47;1.90;;;;;;;;;;5043942;28;20202;-66
2023/04/30 01:18:16;;;;;;;2.97;2.10;;;;;;;;;;5028267;28;20448;-62
2023/04/30 01:20:48;;;;;;;3.10;2.17;;;;;;;;;;5046866;28;20025;-66
2023/04/30 01:23:19;;;;;;;3.53;2.35;;;;;;;;;;5027948;28;20751;-65
2023/04/30 01:26:02;;;;;;;3.55;2.40;;;;;;;;;;5023192;28;20118;-62
2023/04/30 01:28:28;;;;;;;3.20;2.30;;;;;;;;;;5043278;28;20234;-66
2023/04/30 01:30:53;;;;;;;3.67;2.00;;;;;;;;;;5028772;28;20410;-64
2023/04/30 01:33:18;;;;;;;3.13;2.15;;;;;;;;;;5011322;28;20037;-66
2023/04/30 01:36:02;;;;;;;3.40;1.90;;;;;;;;;;5050112;28;20135;-65
2023/04/30 01:38:46;;;;;;;3.17;1.88;;;;;;;;;;5029465;28;20417;-66
2023/04/30 01:41:21;;;;;;;3.75;2.00;;;;;;;;;;5043050;28;20040;-66
2023/04/30 01:43:52;;;;;;;3.20;2.28;;;;;;;;;;5045695;28;20135;-63
2023/04/30 01:46:20;;;;;;;3.40;2.33;;;;;;;;;;5046666;28;20091;-66
2023/04/30 01:48:48;;;;;;;2.92;2.10;;;;;;;;;;5047387;28;20040;-65
2023/04/30 01:51:22;;;;;;;2.80;2.10;;;;;;;;;;5028463;28;20757;-64
2023/04/30 01:53:47;;;;;;;4.03;2.38;;;;;;;;;;5041660;28;20091;-67
2023/04/30 01:56:17;;;;;;;3.47;2.37;;;;;;;;;;5028493;28;20143;-66
2023/04/30 01:58:43;;;;;;;4.00;2.45;;;;;;;;;;5007487;28;20025;-66
2023/04/30 02:01:23;;;;;;;3.95;2.42;;;;;;;;;;5043845;28;20047;-63
2023/04/30 02:03:49;;;;;;;3.55;2.42;;;;;;;;;;5022780;28;20132;-64
2023/04/30 02:06:14;;;;;;;4.07;2.20;;;;;;;;;;5044165;28;20510;-65
2023/04/30 02:08:39;;;;;;;3.13;2.40;;;;;;;;;;5046518;28;20279;-61
2023/04/30 02:11:04;;;;;;;2.97;2.20;;;;;;;;;;5036640;28;20315;-63
2023/04/30 02:13:30;;;;;;;3.80;2.20;;;;;;;;;;5012668;28;20280;-65
2023/04/30 02:15:55;;;;;;;4.10;2.28;;;;;;;;;;5043987;28;20352;-66
2023/04/30 02:18:20;;;;;;;3.33;2.37;;;;;;;;;;5048392;28;20536;-64
2023/04/30 02:20:45;;;;;;;3.03;2.00;;;;;;;;;;5039504;28;20703;-66
2023/04/30 02:23:11;;;;;;;2.83;2.27;;;;;;;;;;5047985;28;20046;-66
2023/04/30 02:25:37;;;;;;;3.05;2.17;;;;;;;;;;5042855;28;20280;-65
2023/04/30 02:28:02;;;;;;;3.58;2.25;;;;;;;;;;5042389;28;20142;-65
2023/04/30 02:30:28;;;;;;;3.80;2.42;;;;;;;;;;5044832;28;20044;-67
2023/04/30 02:32:53;;;;;;;4.17;2.63;;;;;;;;;;5043763;28;20098;-64
2023/04/30 02:35:18;;;;;;;3.33;2.43;;;;;;;;;;5045483;28;20877;-65
2023/04/30 02:37:43;;;;;;;2.83;2.13;;;;;;;;;;5025074;28;20120;-65
2023/04/30 02:40:09;;;;;;;4.43;2.80;;;;;;;;;;5043193;28;20298;-66
2023/04/30 02:42:34;;;;;;;5.00;2.40;;;;;;;;;;5044744;28;20488;-65
2023/04/30 02:45:00;;;;;;;3.53;2.30;;;;;;;;;;5045585;28;20033;-66
2023/04/30 02:47:25;;;;;;;4.38;2.50;;;;;;;;;;5026554;28;20367;-63
2023/04/30 02:49:50;;;;;;;3.40;2.30;;;;;;;;;;5040341;28;20029;-64
2023/04/30 02:52:15;;;;;;;3.33;2.37;;;;;;;;;;5047497;28;20304;-66
2023/04/30 02:54:41;;;;;;;3.37;2.20;;;;;;;;;;5044634;28;20404;-66
2023/04/30 02:57:07;;;;;;;4.20;2.45;;;;;;;;;;5046911;28;20260;-66
2023/04/30 02:59:32;;;;;;;3.13;2.17;;;;;;;;;;5049986;28;20037;-66
2023/04/30 03:01:57;;;;;;;3.33;2.20;;;;;;;;;;5023363;28;20384;-62
2023/04/30 03:04:22;;;;;;;4.55;2.65;;;;;;;;;;5044684;28;20268;-65
2023/04/30 03:06:47;;;;;;;3.30;2.40;;;;;;;;;;5034850;28;20043;-66
2023/04/30 03:09:13;;;;;;;3.20;2.30;;;;;;;;;;5026101;28;20853;-66
2023/04/30 03:11:39;;;;;;;3.00;2.05;;;;;;;;;;5044344;28;20486;-63
2023/04/30 03:14:04;;;;;;;4.07;2.50;;;;;;;;;;5035730;28;20046;-65
2023/04/30 03:16:30;;;;;;;3.80;2.53;;;;;;;;;;5049002;28;20333;-63
2023/04/30 03:18:55;;;;;;;3.60;2.50;;;;;;;;;;5026839;28;20032;-67
2023/04/30 03:21:20;;;;;;;3.97;2.37;;;;;;;;;;5044526;28;20169;-63
2023/04/30 03:23:45;;;;;;;4.03;2.40;;;;;;;;;;5037188;28;20280;-67
2023/04/30 03:26:10;;;;;;;3.47;2.40;;;;;;;;;;5026246;28;20062;-65
2023/04/30 03:28:36;;;;;;;3.77;2.57;;;;;;;;;;5043861;28;20286;-65
2023/04/30 03:31:04;;;;;;;3.50;2.27;;;;;;;;;;5044859;28;20818;-64
2023/04/30 03:33:29;;;;;;;3.60;2.28;;;;;;;;;;5025066;28;20295;-65
2023/04/30 03:35:54;;;;;;;3.65;2.53;;;;;;;;;;5043926;28;20468;-64
2023/04/30 03:38:20;;;;;;;4.27;2.27;;;;;;;;;;5023042;28;20040;-64
2023/04/30 03:40:45;;;;;;;3.87;2.57;;;;;;;;;;5041941;28;20048;-65
2023/04/30 03:43:11;;;;;;;3.83;2.55;;;;;;;;;;5042696;28;20283;-65
2023/04/30 03:45:36;;;;;;;2.73;1.97;;;;;;;;;;5043553;28;20555;-65
2023/04/30 03:48:01;;;;;;;3.10;2.10;;;;;;;;;;5029579;28;20494;-62
2023/04/30 03:50:26;;;;;;;3.53;2.30;;;;;;;;;;5039048;28;20555;-64
2023/04/30 03:52:52;;;;;;;3.35;2.15;;;;;;;;;;5034850;28;20299;-65
2023/04/30 03:55:17;;;;;;;3.73;2.20;;;;;;;;;;5050978;28;20120;-66
2023/04/30 03:57:42;;;;;;;3.15;2.40;;;;;;;;;;5025910;28;20045;-65
2023/04/30 04:00:09;;;;;;;2.93;2.27;;;;;;;;;;5042250;28;20090;-61
2023/04/30 04:02:35;;;;;;;3.05;2.17;;;;;;;;;;5020295;28;20330;-64
2023/04/30 04:05:00;;;;;;;3.03;2.35;;;;;;;;;;5026748;28;20040;-65
2023/04/30 04:07:25;;;;;;;2.47;1.87;;;;;;;;;;5038560;28;20036;-63
2023/04/30 04:09:50;;;;;;;3.50;2.30;;;;;;;;;;5044221;28;20279;-65
2023/04/30 04:12:15;;;;;;;3.77;2.30;;;;;;;;;;5042725;28;20074;-65
2023/04/30 04:14:41;;;;;;;3.13;2.33;;;;;;;;;;5021450;28;20029;-65
2023/04/30 04:17:06;;;;;;;4.07;2.50;;;;;;;;;;5043046;28;20110;-66
2023/04/30 04:19:32;;;;;;;3.88;2.50;;;;;;;;;;5023660;28;20038;-65
2023/04/30 04:21:57;;;;;;;3.88;2.45;;;;;;;;;;5021076;28;20045;-62
2023/04/30 04:24:25;;;;;;;3.20;2.30;;;;;;;;;;5019913;28;20485;-66
2023/04/30 04:26:51;;;;;;;3.85;2.50;;;;;;;;;;5024020;28;20437;-66
2023/04/30 04:29:16;;;;;;;3.60;2.40;;;;;;;;;;5029065;28;20136;-67
2023/04/30 04:31:41;;;;;;;3.05;2.17;;;;;;;;;;5038712;28;20814;-66
2023/04/30 04:34:07;;;;;;;3.40;2.38;;;;;;;;;;5037842;28;20417;-66
2023/04/30 04:36:33;;;;;;;3.33;2.50;;;;;;;;;;5034569;28;20124;-66
2023/04/30 04:39:01;;;;;;;3.45;2.50;;;;;;;;;;5027040;28;20033;-65
2023/04/30 04:41:29;;;;;;;4.00;2.40;;;;;;;;;;5023059;28;20037;-65
2023/04/30 04:43:55;;;;;;;3.58;2.40;;;;;;;;;;5007664;28;20060;-63
2023/04/30 04:46:21;;;;;;;3.85;2.67;;;;;;;;;;5043779;28;20043;-66
2023/04/30 04:48:46;;;;;;;3.72;2.30;;;;;;;;;;5023793;28;20033;-64
2023/04/30 04:51:11;;;;;;;4.47;2.30;;;;;;;;;;5042728;28;20037;-66
2023/04/30 04:53:37;;;;;;;3.65;2.40;;;;;;;;;;5040906;28;20256;-65
2023/04/30 04:56:02;;;;;;;3.30;2.22;;;;;;;;;;5039934;28;20100;-63
2023/04/30 04:58:27;;;;;;;3.45;2.63;;;;;;;;;;5031224;28;20103;-65
2023/04/30 05:00:53;;;;;;;3.23;2.47;;;;;;;;;;5035057;28;20021;-66
2023/04/30 05:03:19;;;;;;;2.95;2.10;;;;;;;;;;5047776;28;20271;-66
2023/04/30 05:05:45;;;;;;;3.40;2.33;;;;;;;;;;5042987;28;20028;-65
2023/04/30 05:08:10;;;;;;;3.35;2.22;;;;;;;;;;5024924;28;20012;-62
2023/04/30 05:10:35;;;;;;;3.07;2.20;;;;;;;;;;5029482;28;20143;-63
2023/04/30 05:13:00;;;;;;;2.43;2.00;;;;;;;;;;5026921;28;20291;-66
2023/04/30 05:15:26;;;;;;;3.25;2.30;;;;;;;;;;5045662;28;20269;-66
2023/04/30 05:17:51;;;;;;;3.35;2.50;;;;;;;;;;5038742;28;20367;-67
2023/04/30 05:20:16;;;;;;;3.77;2.53;;;;;;;;;;5036697;28;20017;-64
2023/04/30 05:22:41;;;;;;;3.55;2.38;;;;;;;;;;5035727;28;20264;-66
2023/04/30 05:25:07;;;;;;;3.47;2.40;;;;;;;;;;5038838;28;20017;-64
2023/04/30 05:27:32;;;;;;;3.08;2.20;;;;;;;;;;5042223;28;20284;-63
2023/04/30 05:29:57;;;;;;;3.10;2.27;;;;;;;;;;5028636;28;20025;-64
2023/04/30 05:32:23;;;;;;;2.78;2.28;;;;;;;;;;5017353;28;20086;-66
2023/04/30 05:34:48;;;;;;;3.43;2.27;;;;;;;;;;5040569;28;20033;-67
2023/04/30 05:37:16;;;;;;;3.33;2.45;;;;;;;;;;5042995;28;20260;-67
2023/04/30 05:39:41;;;;;;;3.10;2.35;;;;;;;;;;5049176;28;20013;-64
2023/04/30 05:42:06;;;;;;;3.63;2.57;;;;;;;;;;5045900;28;20158;-68
2023/04/30 05:44:32;;;;;;;3.27;2.30;;;;;;;;;;5045695;28;20275;-67
2023/04/30 05:46:57;;;;;;;3.27;2.53;;;;;;;;;;5025466;28;20308;-69
2023/04/30 05:49:22;;;;;;;3.37;2.20;;;;;;;;;;5027691;28;20858;-64
2023/04/30 05:51:47;;;;;;;3.03;2.10;;;;;;;;;;5027610;28;20295;-68
2023/04/30 05:54:13;;;;;;;3.10;2.20;;;;;;;;;;5025045;28;20032;-70
2023/04/30 05:56:38;;;;;;;3.70;2.50;;;;;;;;;;5028255;28;20021;-67
2023/04/30 05:59:03;;;;;;;3.23;2.40;;;;;;;;;;5044355;28;20282;-70
2023/04/30 06:01:28;;;;;;;3.73;2.40;;;;;;;;;;5039327;28;20071;-65
2023/04/30 06:03:54;;;;;;;3.45;2.60;;;;;;;;;;5043488;28;20033;-66
2023/04/30 06:06:19;;;;;;;3.83;2.28;;;;;;;;;;5022862;28;20017;-64
2023/04/30 06:08:44;;;;;;;3.33;2.55;;;;;;;;;;5025115;28;20044;-63
2023/04/30 06:11:10;;;;;;;3.47;2.22;;;;;;;;;;5029009;28;20055;-66
2023/04/30 06:13:35;;;;;;;3.63;2.00;;;;;;;;;;5045475;28;20016;-64
2023/04/30 06:16:01;;;;;;;3.53;2.57;;;;;;;;;;5048710;28;20035;-67
2023/04/30 06:18:26;;;;;;;3.25;2.35;;;;;;;;;;5027142;28;20276;-66
2023/04/30 06:20:51;;;;;;;3.15;2.22;;;;;;;;;;5026343;28;20143;-65
2023/04/30 06:23:17;;;;;;;3.30;2.27;;;;;;;;;;5010743;28;20491;-67
2023/04/30 06:25:42;;;;;;;3.50;2.30;;;;;;;;;;5045368;28;20307;-67
2023/04/30 06:28:08;;;;;;;3.23;2.30;;;;;;;;;;5004241;28;20301;-65
2023/04/30 06:30:34;;;;;;;3.78;2.45;;;;;;;;;;5029253;28;20276;-65
2023/04/30 06:32:59;;;;;;;3.22;2.33;;;;;;;;;;4989236;28;20056;-66
2023/04/30 06:35:24;;;;;;;3.23;2.27;;;;;;;;;;5008733;28;20040;-62
2023/04/30 06:37:50;;;;;;;2.85;2.28;;;;;;;;;;5003326;28;20642;-65
2023/04/30 06:40:15;;;;;;;3.80;2.50;;;;;;;;;;5006120;28;20030;-66
2023/04/30 06:42:40;;;;;;;3.65;2.28;;;;;;;;;;5023033;28;20033;-65
2023/04/30 06:45:06;;;;;;;3.15;2.50;;;;;;;;;;5024392;28;20553;-65
2023/04/30 06:47:35;;;;;;;3.00;2.33;;;;;;;;;;5018555;28;20061;-63
2023/04/30 06:50:00;;;;;;;3.08;2.40;;;;;;;;;;5006053;28;20034;-65
2023/04/30 06:52:26;;;;;;;3.30;2.40;;;;;;;;;;5024049;28;20068;-66
2023/04/30 06:54:51;;;;;;;3.42;2.25;;;;;;;;;;5020866;28;20462;-63
2023/04/30 06:57:16;;;;;;;3.13;2.30;;;;;;;;;;5006331;28;20514;-65
2023/04/30 06:59:41;;;;;;;3.03;2.20;;;;;;;;;;5026720;28;20280;-64
2023/04/30 07:02:07;;;;;;;3.25;2.30;;;;;;;;;;5003465;28;20276;-66
2023/04/30 07:04:32;;;;;;;4.15;2.60;;;;;;;;;;5017314;28;20053;-63
2023/04/30 07:06:59;;;;;;;3.63;2.60;;;;;;;;;;5020745;28;20030;-63
2023/04/30 07:09:24;;;;;;;4.78;2.90;;;;;;;;;;5009788;28;20052;-64
2023/04/30 07:11:50;;;;;;;3.67;2.47;;;;;;;;;;4984737;28;20057;-63
2023/04/30 07:14:15;;;;;;;4.20;2.55;;;;;;;;;;4998652;28;20034;-64
2023/04/30 07:16:40;;;;;;;3.63;2.30;;;;;;;;;;5021075;28;20037;-65
2023/04/30 07:19:05;;;;;;;3.23;2.33;;;;;;;;;;5001107;28;20037;-64
2023/04/30 07:21:31;;;;;;;3.70;2.50;;;;;;;;;;5007619;28;20276;-65
2023/04/30 07:23:56;;;;;;;3.58;2.50;;;;;;;;;;5019840;28;20497;-66
2023/04/30 07:26:24;;;;;;;3.13;2.58;;;;;;;;;;5010960;28;20045;-66
2023/04/30 07:28:53;;;;;;;3.85;2.42;;;;;;;;;;5026689;28;20049;-64
2023/04/30 07:31:19;;;;;;;3.75;2.70;;;;;;;;;;5028603;23;20087;-71
2023/04/30 07:33:44;;;;;;;5.22;2.83;;;;;;;;;;5031917;28;20107;-65
2023/04/30 07:36:10;;;;;;;4.13;2.50;;;;;;;;;;5014388;28;20037;-63
2023/04/30 07:38:35;;;;;;;3.47;2.42;;;;;;;;;;5018456;28;20040;-68
2023/04/30 07:41:01;;;;;;;7.05;2.83;;;;;;;;;;5041012;28;20352;-67
2023/04/30 07:43:26;;;;;;;4.35;2.58;;;;;;;;;;5013309;28;20025;-67
2023/04/30 07:45:53;;;;;;;3.93;2.67;;;;;;;;;;5039810;28;20546;-66
2023/04/30 07:48:18;;;;;;;3.20;2.45;;;;;;;;;;5035629;28;20052;-63
2023/04/30 07:50:46;;;;;;;3.47;2.30;;;;;;;;;;5059093;22;21222;-66
2023/04/30 07:53:11;;;;;;;3.10;2.38;;;;;;;;;;5037292;28;20055;-66
2023/04/30 07:55:36;;;;;;;3.58;2.50;;;;;;;;;;5056757;28;20029;-68
2023/04/30 07:58:02;;;;;;;3.17;2.47;;;;;;;;;;5058980;28;20647;-65
2023/04/30 08:00:28;;;;;;;3.00;2.35;;;;;;;;;;5023560;28;20040;-67
2023/04/30 08:02:53;;;;;;;3.45;2.42;;;;;;;;;;5052051;28;20063;-66
2023/04/30 08:05:19;;;;;;;3.20;2.38;;;;;;;;;;5058150;28;20576;-66
2023/04/30 08:07:44;;;;;;;5.10;2.50;;;;;;;;;;5030912;28;20040;-67
2023/04/30 08:10:09;;;;;;;3.85;2.38;;;;;;;;;;5042553;28;20029;-70
2023/04/30 08:12:35;;;;;;;3.78;2.53;;;;;;;;;;5054956;28;20051;-65
2023/04/30 08:15:03;;;;;;;3.75;2.50;;;;;;;;;;5046741;28;20040;-65
2023/04/30 08:17:29;;;;;;;4.20;2.65;;;;;;;;;;5057080;28;20044;-67
2023/04/30 08:19:54;;;;;;;3.30;2.25;;;;;;;;;;5041359;28;20529;-66
2023/04/30 08:22:20;;;;;;;3.58;2.25;;;;;;;;;;5058825;28;20045;-64
2023/04/30 08:24:45;;;;;;;3.03;2.20;;;;;;;;;;5046141;28;20589;-65
2023/04/30 08:27:10;;;;;;;4.22;2.65;;;;;;;;;;5027332;28;20297;-62
2023/04/30 08:29:36;;;;;;;3.83;2.65;;;;;;;;;;5031841;28;20039;-64
2023/04/30 08:32:01;;;;;;;3.63;2.47;;;;;;;;;;5048797;28;20033;-67
2023/04/30 08:34:26;;;;;;;3.65;2.47;;;;;;;;;;5048303;28;20426;-64
2023/04/30 08:36:52;;;;;;;4.13;2.27;;;;;;;;;;5046997;28;20033;-67
2023/04/30 08:39:17;;;;;;;4.40;2.63;;;;;;;;;;5050178;28;20043;-69
2023/04/30 08:41:43;;;;;;;4.70;2.50;;;;;;;;;;5031156;28;20284;-68
2023/04/30 08:44:08;;;;;;;4.45;2.83;;;;;;;;;;5047276;28;20029;-68
2023/04/30 08:46:34;;;;;;;3.50;2.40;;;;;;;;;;5036582;28;20033;-64
2023/04/30 08:48:59;;;;;;;3.40;2.30;;;;;;;;;;5029966;28;20275;-67
2023/04/30 08:51:25;;;;;;;4.77;2.90;;;;;;;;;;5042661;28;20424;-63
2023/04/30 08:53:50;;;;;;;4.70;2.80;;;;;;;;;;5074707;28;20297;-68
2023/04/30 08:56:15;;;;;;;3.60;2.23;;;;;;;;;;5081341;28;20037;-69
2023/04/30 08:58:42;;;;;;;5.50;2.70;;;;;;;;;;5061126;28;20286;-67
2023/04/30 09:01:08;;;;;;;3.10;2.58;;;;;;;;;;5080644;28;20060;-63
2023/04/30 09:03:33;;;;;;;4.82;2.85;;;;;;;;;;5055237;28;20542;-67
2023/04/30 09:05:58;;;;;;;4.93;2.50;;;;;;;;;;5064802;28;20573;-64
2023/04/30 09:08:43;;;;;;;4.17;2.80;;;;;;;;;;5078270;28;20028;-66
2023/04/30 09:11:27;;;;;;;4.35;2.40;;;;;;;;;;5090447;28;20399;-67
2023/04/30 09:14:02;;;;;;;4.38;2.40;;;;;;;;;;5069369;28;20032;-69
2023/04/30 09:16:31;;;;;;;3.38;2.55;;;;;;;;;;5085517;28;20420;-69
2023/04/30 09:18:56;;;;;;;4.05;2.60;;;;;;;;;;5066573;28;20075;-70
2023/04/30 09:21:34;;;;;;;3.53;2.30;;;;;;;;;;5061482;28;20066;-65
2023/04/30 09:24:00;;;;;;;3.42;2.60;;;;;;;;;;5046158;28;21257;-62
2023/04/30 09:26:27;;;;;;;3.33;2.50;;;;;;;;;;5056628;28;20028;-64
2023/04/30 09:28:56;;;;;;;4.57;2.45;;;;;;;;;;5081693;28;20024;-69
2023/04/30 09:31:21;;;;;;;3.67;2.40;;;;;;;;;;5070109;28;20047;-70
2023/04/30 09:33:46;;;;;;;3.23;2.17;;;;;;;;;;5081513;28;20032;-65
2023/04/30 09:36:12;;;;;;;4.10;2.57;;;;;;;;;;5083431;28;20334;-67
2023/04/30 09:38:37;;;;;;;3.05;2.22;;;;;;;;;;5085735;28;20031;-69
2023/04/30 09:41:02;;;;;;;5.33;2.43;;;;;;;;;;5068791;28;20493;-74
2023/04/30 09:43:28;;;;;;;3.50;2.50;;;;;;;;;;5077220;28;20435;-67
2023/04/30 09:45:53;;;;;;;3.72;2.58;;;;;;;;;;5083973;28;20123;-69
2023/04/30 09:48:22;;;;;;;4.15;2.33;;;;;;;;;;5084319;28;20463;-65
2023/04/30 09:50:47;;;;;;;3.65;2.40;;;;;;;;;;5080496;28;20533;-67
2023/04/30 09:53:13;;;;;;;3.03;2.20;;;;;;;;;;5035405;28;20025;-66
2023/04/30 09:55:41;;;;;;;3.47;2.33;;;;;;;;;;5059040;28;20095;-71
2023/04/30 09:58:06;;;;;;;3.30;2.25;;;;;;;;;;5030906;28;20052;-70
2023/04/30 10:00:32;;;;;;;3.72;2.60;;;;;;;;;;5036688;28;20056;-64
2023/04/30 10:02:58;;;;;;;3.10;2.60;;;;;;;;;;5036858;28;20031;-63
2023/04/30 10:05:23;;;;;;;3.22;2.65;;;;;;;;;;5048569;28;20481;-68
2023/04/30 10:07:48;;;;;;;3.40;2.25;;;;;;;;;;5045222;28;20028;-67
2023/04/30 10:10:13;;;;;;;4.27;2.50;;;;;;;;;;5055826;28;20418;-71
2023/04/30 10:12:42;;;;;;;2.65;2.42;;;;;;;;;;5032103;28;20840;-72
2023/04/30 10:15:12;;;;;;;3.28;2.72;;;;;;;;;;5035343;28;20029;-72
2023/04/30 10:17:40;;;;;;;3.38;2.50;;;;;;;;;;5037129;28;20078;-73
2023/04/30 10:20:08;;;;;;;3.38;2.58;;;;;;;;;;5031400;28;20108;-71
2023/04/30 10:22:33;;;;;;;3.63;2.80;;;;;;;;;;5050923;28;20171;-67
2023/04/30 10:24:59;;;;;;;3.30;2.50;;;;;;;;;;5020883;28;20511;-67
2023/04/30 10:27:24;;;;;;;3.57;2.60;;;;;;;;;;5030591;28;20071;-68
2023/04/30 10:29:49;;;;;;;4.37;2.70;;;;;;;;;;5058097;28;20337;-66
2023/04/30 10:32:15;;;;;;;4.03;2.67;;;;;;;;;;5047512;28;20833;-65
2023/04/30 10:34:54;;;;;;;3.13;2.60;;;;;;;;;;5046480;28;20032;-69
2023/04/30 10:37:25;;;;;;;5.75;2.35;;;;;;;;;;5035937;28;20036;-70
2023/04/30 10:39:51;;;;;;;3.85;2.70;;;;;;;;;;5064084;28;20115;-68
2023/04/30 10:42:16;;;;;;;5.37;2.63;;;;;;;;;;5049108;28;20186;-69
2023/04/30 10:44:41;;;;;;;4.23;2.20;;;;;;;;;;5013214;28;20779;-71
2023/04/30 10:47:07;;;;;;;3.17;2.50;;;;;;;;;;5031981;28;20648;-69
2023/04/30 10:49:32;;;;;;;4.13;2.75;;;;;;;;;;5047343;28;20026;-69
2023/04/30 10:52:01;;;;;;;4.28;2.58;;;;;;;;;;5069873;28;20047;-71
2023/04/30 10:54:33;;;;;;;3.95;2.88;;;;;;;;;;5077841;28;20093;-69
2023/04/30 10:57:16;;;;;;;3.30;2.42;;;;;;;;;;5074330;28;20150;-70
2023/04/30 10:59:44;;;;;;;2.88;2.20;;;;;;;;;;5063377;28;20037;-67
2023/04/30 11:02:09;;;;;;;2.95;2.15;;;;;;;;;;5080260;28;20043;-66
2023/04/30 11:04:34;;;;;;;3.00;2.40;;;;;;;;;;5072618;28;20037;-68
2023/04/30 11:07:06;;;;;;;2.70;2.00;;;;;;;;;;5082510;28;20040;-62
2023/04/30 11:09:41;;;;;;;4.70;2.60;;;;;;;;;;5072354;28;20041;-63
2023/04/30 11:12:13;;;;;;;2.83;2.20;;;;;;;;;;5079559;28;20052;-67
2023/04/30 11:14:40;;;;;;;3.00;2.20;;;;;;;;;;5088656;28;20123;-68
2023/04/30 11:17:05;;;;;;;3.85;2.50;;;;;;;;;;5083886;28;20032;-67
2023/04/30 11:19:30;;;;;;;3.20;2.30;;;;;;;;;;5073918;28;20096;-68
2023/04/30 11:22:02;;;;;;;2.95;2.22;;;;;;;;;;5074836;28;20282;-63
2023/04/30 11:24:46;;;;;;;3.30;2.28;;;;;;;;;;5081598;28;20449;-70
2023/04/30 11:27:11;;;;;;;3.15;2.53;;;;;;;;;;5076332;28;20068;-71
2023/04/30 11:29:37;;;;;;;2.78;2.20;;;;;;;;;;5073765;28;20075;-68
2023/04/30 11:32:03;;;;;;;4.28;2.30;;;;;;;;;;5075928;28;20071;-66
2023/04/30 11:34:28;;;;;;;2.47;2.08;;;;;;;;;;5080554;28;20028;-70
2023/04/30 11:36:57;;;;;;;3.22;2.13;;;;;;;;;;5072677;28;20051;-72
2023/04/30 11:39:23;;;;;;;2.92;2.20;;;;;;;;;;5063818;28;20070;-70
2023/04/30 11:41:48;;;;;;;5.90;2.60;;;;;;;;;;5063552;28;20058;-68
2023/04/30 11:44:26;;;;;;;3.20;2.30;;;;;;;;;;5064710;28;20036;-69
2023/04/30 11:46:51;;;;;;;3.30;2.10;;;;;;;;;;5079848;28;20294;-66
2023/04/30 11:49:17;;;;;;;2.75;2.20;;;;;;;;;;5081807;28;20042;-65
2023/04/30 11:51:42;;;;;;;3.80;2.38;;;;;;;;;;5074928;28;20051;-67
2023/04/30 11:54:08;;;;;;;3.25;2.15;;;;;;;;;;5075485;28;20017;-64
2023/04/30 11:56:36;;;;;;;3.08;2.00;;;;;;;;;;5075007;28;20020;-64
2023/04/30 11:59:01;;;;;;;3.45;2.63;;;;;;;;;;5072725;28;20067;-68
2023/04/30 12:01:27;;;;;;;4.68;2.30;;;;;;;;;;5050684;28;20071;-65
2023/04/30 12:03:53;;;;;;;3.30;2.20;;;;;;;;;;5076577;28;20436;-68
2023/04/30 12:06:22;;;;;;;4.60;2.10;;;;;;;;;;5072315;28;20036;-69
2023/04/30 12:08:47;;;;;;;3.53;2.33;;;;;;;;;;5058257;28;20016;-69
2023/04/30 12:11:19;;;;;;;3.10;2.03;;;;;;;;;;5081541;28;20016;-69
2023/04/30 12:13:49;;;;;;;2.42;2.00;;;;;;;;;;5083062;28;20376;-66
2023/04/30 12:16:14;;;;;;;3.40;2.33;;;;;;;;;;5078100;28;20090;-72
2023/04/30 12:18:39;;;;;;;3.22;2.28;;;;;;;;;;5076201;28;20044;-72
2023/04/30 12:21:05;;;;;;;4.20;2.20;;;;;;;;;;5087049;28;20067;-65
2023/04/30 12:23:30;;;;;;;3.85;2.33;;;;;;;;;;5087989;28;20811;-69
2023/04/30 12:25:58;;;;;;;3.58;1.95;;;;;;;;;;5080414;28;20032;-66
2023/04/30 12:28:23;;;;;;;4.05;2.83;;;;;;;;;;5052730;28;20028;-66
2023/04/30 12:30:48;;;;;;;3.33;2.17;;;;;;;;;;5082860;28;20101;-65
2023/04/30 12:33:15;;;;;;;3.07;2.20;;;;;;;;;;5078322;28;21990;-66
2023/04/30 12:35:41;;;;;;;3.05;2.53;;;;;;;;;;5076073;28;20785;-74
2023/04/30 12:38:06;;;;;;;3.22;2.10;;;;;;;;;;5082515;28;20088;-69
2023/04/30 12:40:32;;;;;;;2.97;2.15;;;;;;;;;;5080297;28;20033;-65
2023/04/30 12:43:01;;;;;;;4.80;2.25;;;;;;;;;;5082563;28;20047;-70
2023/04/30 12:45:45;;;;;;;6.38;2.42;;;;;;;;;;5067756;28;20056;-67
2023/04/30 12:48:10;;;;;;;3.15;2.10;;;;;;;;;;5062793;28;20078;-67
2023/04/30 12:50:37;;;;;;;4.15;2.35;;;;;;;;;;5058026;28;20072;-61
2023/04/30 12:53:02;;;;;;;4.32;2.30;;;;;;;;;;5060333;28;20094;-64
2023/04/30 12:55:28;;;;;;;2.38;1.70;;;;;;;;;;5059760;28;20134;-65
2023/04/30 12:58:03;;;;;;;3.88;1.88;;;;;;;;;;5073388;28;20040;-67
2023/04/30 13:00:29;;;;;;;3.58;1.83;;;;;;;;;;5062058;28;20035;-64
2023/04/30 13:02:54;;;;;;;3.17;1.90;;;;;;;;;;5062282;28;20028;-66
2023/04/30 13:05:19;;;;;;;2.65;1.77;;;;;;;;;;5068775;28;20496;-67
2023/04/30 13:07:45;;;;;;;5.17;2.20;;;;;;;;;;5078093;28;20028;-63
2023/04/30 13:10:10;;;;;;;3.72;1.80;;;;;;;;;;5075569;28;20321;-67
2023/04/30 13:12:35;;;;;;;3.45;1.95;;;;;;;;;;5067760;28;20056;-69
2023/04/30 13:15:02;;;;;;;3.60;2.13;;;;;;;;;;5074942;28;20224;-65
2023/04/30 13:17:28;;;;;;;3.90;1.90;;;;;;;;;;5064268;28;20074;-67
2023/04/30 13:19:53;;;;;;;2.70;1.83;;;;;;;;;;5069209;28;20056;-63
2023/04/30 13:22:18;;;;;;;3.50;2.10;;;;;;;;;;5072678;28;20089;-67
2023/04/30 13:24:43;;;;;;;3.70;2.10;;;;;;;;;;5075363;28;20301;-66
2023/04/30 13:27:09;;;;;;;3.10;2.00;;;;;;;;;;5066470;28;20403;-67
2023/04/30 13:29:34;;;;;;;2.90;1.70;;;;;;;;;;5078930;28;20170;-69
2023/04/30 13:31:59;;;;;;;3.63;2.00;;;;;;;;;;5076150;28;20063;-67
2023/04/30 13:34:25;;;;;;;3.60;1.95;;;;;;;;;;5077220;28;20028;-68
2023/04/30 13:36:52;;;;;;;4.25;2.53;;;;;;;;;;5085887;28;20047;-62
2023/04/30 13:39:18;;;;;;;2.70;1.80;;;;;;;;;;5083909;28;20039;-67
2023/04/30 13:41:44;;;;;;;2.45;2.05;;;;;;;;;;5081355;28;20040;-67
2023/04/30 13:44:09;;;;;;;4.32;2.20;;;;;;;;;;5084093;28;20093;-63
2023/04/30 13:46:34;;;;;;;2.40;1.95;;;;;;;;;;5084830;28;20131;-66
2023/04/30 13:49:00;;;;;;;4.40;2.20;;;;;;;;;;5083908;28;20403;-65
2023/04/30 13:51:25;;;;;;;2.63;1.90;;;;;;;;;;5068650;28;20082;-66
2023/04/30 13:53:51;;;;;;;2.42;1.80;;;;;;;;;;5084201;28;20091;-63
2023/04/30 13:56:16;;;;;;;3.28;1.80;;;;;;;;;;5085934;28;20036;-64
2023/04/30 13:58:42;;;;;;;3.40;1.93;;;;;;;;;;5085549;28;20029;-67
2023/04/30 14:01:07;;;;;;;3.35;1.90;;;;;;;;;;5085865;28;20032;-65
2023/04/30 14:03:33;;;;;;;4.90;2.13;;;;;;;;;;5086023;28;20032;-64
2023/04/30 14:05:58;;;;;;;2.20;1.60;;;;;;;;;;5084582;28;20508;-64
2023/04/30 14:08:23;;;;;;;2.50;1.80;;;;;;;;;;5080036;28;20629;-70
2023/04/30 14:10:48;;;;;;;3.50;1.90;;;;;;;;;;5056157;28;20438;-65
2023/04/30 14:13:14;;;;;;;3.10;1.63;;;;;;;;;;5069069;28;20526;-70
2023/04/30 14:15:39;;;;;;;2.70;1.48;;;;;;;;;;5082996;28;20552;-63
2023/04/30 14:18:04;;;;;;;2.50;1.40;;;;;;;;;;5070047;28;20055;-60
2023/04/30 14:20:30;;;;;;;2.25;1.60;;;;;;;;;;5061370;28;20303;-61
2023/04/30 14:22:55;;;;;;;2.73;1.43;;;;;;;;;;5064000;28;20049;-59
2023/04/30 14:25:20;;;;;;;2.13;1.50;;;;;;;;;;5059609;28;20296;-59
2023/04/30 14:27:46;;;;;;;2.20;1.83;;;;;;;;;;5084587;28;20286;-58
2023/04/30 14:30:11;;;;;;;2.15;1.38;;;;;;;;;;5082913;28;20106;-63
2023/04/30 14:32:37;;;;;;;4.03;1.90;;;;;;;;;;5081515;28;20153;-64
2023/04/30 14:35:03;;;;;;;2.00;1.50;;;;;;;;;;5080075;28;20032;-63
2023/04/30 14:37:29;;;;;;;2.72;1.73;;;;;;;;;;5083161;28;20114;-63